createdAt,value
2023-01-21T12:07:41.501Z,52.50
2023-01-21T12:10:30.274Z,53.60
2023-01-21T12:13:23.856Z,55.20
2023-01-21T12:16:14.675Z,53.30
2023-01-21T12:19:19.074Z,52.10
2023-01-21T12:22:23.789Z,58.20
2023-01-21T12:25:05.860Z,56.20
2023-01-21T12:27:38.077Z,52.80
2023-01-21T12:30:27.376Z,56.80
2023-01-21T12:33:11.410Z,52.60
2023-01-21T12:35:52.008Z,55.10
2023-01-21T12:38:26.680Z,55.70
2023-01-21T12:41:27.647Z,56.40
2023-01-21T12:43:59.927Z,57.40
2023-01-21T12:46:40.935Z,55.50
2023-01-21T12:49:45.353Z,53.20
2023-01-21T12:52:24.028Z,53.50
2023-01-21T12:55:00.299Z,53.60
2023-01-21T12:57:39.352Z,57.20
2023-01-21T13:00:21.009Z,55.00
2023-01-21T13:03:12.136Z,55.90
2023-01-21T13:05:57.388Z,56.20
2023-01-21T13:08:37.592Z,57.00
2023-01-21T13:11:20.988Z,57.20
2023-01-21T13:14:08.019Z,59.80
2023-01-21T13:16:39.253Z,61.40
2023-01-21T13:19:06.761Z,62.20
2023-01-21T13:22:11.090Z,62.70
2023-01-21T13:24:46.907Z,62.50
2023-01-21T13:27:22.661Z,62.90
2023-01-21T13:30:00.044Z,63.40
2023-01-21T13:32:35.917Z,64.10
2023-01-21T13:35:11.376Z,64.10
2023-01-21T13:38:05.927Z,64.10
2023-01-21T13:41:05.140Z,64.00
2023-01-21T13:43:34.756Z,63.70
2023-01-21T13:46:39.209Z,64.20
2023-01-21T13:49:06.198Z,80.90
2023-01-21T13:51:42.034Z,74.80
2023-01-21T13:54:35.126Z,72.00
2023-01-21T13:57:16.733Z,63.30
2023-01-21T13:59:55.363Z,63.10
2023-01-21T14:02:30.799Z,62.10
2023-01-21T14:05:03.375Z,63.60
2023-01-21T14:07:44.528Z,62.90
2023-01-21T14:10:32.608Z,63.80
2023-01-21T14:13:09.448Z,65.30
2023-01-21T14:15:47.854Z,65.50
2023-01-21T14:18:52.150Z,65.40
2023-01-21T14:21:22.119Z,68.80
2023-01-21T14:24:26.265Z,69.70
2023-01-21T14:27:21.933Z,68.60
2023-01-21T14:30:05.098Z,66.60
2023-01-21T14:32:44.363Z,67.30
2023-01-21T14:35:17.281Z,67.40
2023-01-21T14:37:49.463Z,67.40
2023-01-21T14:40:28.199Z,66.90
2023-01-21T14:42:55.400Z,65.10
2023-01-21T14:45:25.736Z,64.50
2023-01-21T14:47:58.986Z,64.60
2023-01-21T14:50:50.913Z,63.80
2023-01-21T14:53:27.817Z,63.10
2023-01-21T14:56:31.666Z,62.00
2023-01-21T14:59:04.600Z,61.10
2023-01-21T15:01:34.348Z,59.50
2023-01-21T15:04:07.365Z,59.60
2023-01-21T15:06:39.726Z,58.60
2023-01-21T15:09:07.450Z,57.70
2023-01-21T15:11:40.258Z,57.60
2023-01-21T15:14:21.839Z,57.50
2023-01-21T15:16:48.851Z,58.30
2023-01-21T15:19:21.159Z,58.80
2023-01-21T15:21:59.851Z,59.10
2023-01-21T15:24:35.483Z,60.40
2023-01-21T15:27:28.488Z,60.20
2023-01-21T15:29:55.300Z,59.40
2023-01-21T15:32:44.567Z,58.50
2023-01-21T15:35:29.436Z,59.00
2023-01-21T15:38:08.177Z,59.70
2023-01-21T15:40:40.901Z,59.30
2023-01-21T15:43:20.130Z,59.60
2023-01-21T15:46:20.901Z,57.90
2023-01-21T15:49:16.863Z,58.40
2023-01-21T15:51:52.539Z,59.10
2023-01-21T15:54:22.172Z,57.90
2023-01-21T15:57:00.852Z,59.30
2023-01-21T15:59:50.419Z,60.00
2023-01-21T16:02:20.843Z,60.20
2023-01-21T16:04:50.705Z,59.70
2023-01-21T16:07:29.245Z,58.00
2023-01-21T16:10:33.381Z,58.60
2023-01-21T16:13:08.071Z,58.20
2023-01-21T16:16:00.861Z,56.60
2023-01-21T16:18:37.548Z,57.50
2023-01-21T16:21:04.583Z,57.80
2023-01-21T16:23:37.842Z,58.30
2023-01-21T16:26:05.001Z,59.20
2023-01-21T16:28:50.300Z,59.10
2023-01-21T16:31:17.385Z,60.30
2023-01-21T16:33:44.336Z,60.00
2023-01-21T16:36:14.276Z,60.60
2023-01-21T16:38:45.294Z,61.20
2023-01-21T16:41:14.784Z,61.10
2023-01-21T16:43:58.000Z,60.30
2023-01-21T16:46:34.918Z,58.90
2023-01-21T16:49:04.849Z,58.70
2023-01-21T16:51:39.961Z,60.40
2023-01-21T16:54:32.495Z,61.20
2023-01-21T16:57:20.664Z,61.80
2023-01-21T16:59:52.951Z,61.00
2023-01-21T17:02:32.504Z,59.70
2023-01-21T17:05:04.457Z,61.40
2023-01-21T17:07:32.698Z,61.30
2023-01-21T17:10:08.402Z,62.50
2023-01-21T17:12:36.679Z,64.40
2023-01-21T17:15:18.528Z,63.80
2023-01-21T17:17:46.027Z,63.90
2023-01-21T17:21:20.451Z,63.80
2023-01-21T17:23:56.930Z,64.60
2023-01-21T17:26:31.670Z,66.00
2023-01-21T17:29:35.641Z,65.50
2023-01-21T17:32:05.604Z,66.00
2023-01-21T17:34:37.525Z,67.00
2023-01-21T17:37:44.575Z,67.00
2023-01-21T17:40:33.915Z,65.90
2023-01-21T17:43:10.213Z,64.30
2023-01-21T17:45:42.496Z,63.10
2023-01-21T17:48:18.708Z,62.20
2023-01-21T17:50:47.250Z,61.70
2023-01-21T17:53:26.473Z,60.90
2023-01-21T17:56:04.981Z,60.00
2023-01-21T17:58:31.796Z,61.00
2023-01-21T18:01:02.002Z,60.90
2023-01-21T18:03:28.929Z,62.70
2023-01-21T18:05:56.149Z,63.30
2023-01-21T18:08:23.111Z,63.70
2023-01-21T18:10:50.662Z,64.00
2023-01-21T18:13:21.203Z,64.20
2023-01-21T18:15:51.490Z,64.60
2023-01-21T18:18:28.022Z,64.10
2023-01-21T18:20:55.604Z,63.10
2023-01-21T18:23:22.739Z,63.60
2023-01-21T18:25:52.538Z,64.60
2023-01-21T18:28:19.590Z,65.10
2023-01-21T18:30:47.280Z,65.20
2023-01-21T18:33:14.997Z,64.10
2023-01-21T18:35:47.294Z,64.30
2023-01-21T18:38:27.394Z,63.30
2023-01-21T18:40:55.518Z,62.80
2023-01-21T18:43:23.714Z,60.80
2023-01-21T18:45:51.771Z,71.80
2023-01-21T18:48:22.460Z,64.60
2023-01-21T18:50:49.350Z,60.60
2023-01-21T18:53:16.241Z,62.10
2023-01-21T18:55:47.060Z,64.60
2023-01-21T18:58:16.946Z,63.80
2023-01-21T19:00:44.004Z,62.00
2023-01-21T19:03:13.846Z,63.80
2023-01-21T19:05:43.333Z,71.40
2023-01-21T19:08:21.663Z,66.60
2023-01-21T19:10:48.525Z,64.10
2023-01-21T19:13:15.464Z,65.10
2023-01-21T19:15:42.564Z,64.70
2023-01-21T19:18:13.956Z,62.20
2023-01-21T19:20:41.784Z,62.10
2023-01-21T19:23:17.260Z,63.50
2023-01-21T19:25:52.474Z,65.40
2023-01-21T19:28:19.997Z,63.40
2023-01-21T19:30:49.394Z,61.40
2023-01-21T19:33:16.600Z,63.30
2023-01-21T19:35:45.676Z,63.70
2023-01-21T19:38:18.763Z,63.10
2023-01-21T19:40:46.750Z,61.60
2023-01-21T19:43:18.604Z,62.30
2023-01-21T19:45:45.528Z,60.00
2023-01-21T19:48:14.363Z,62.30
2023-01-21T19:50:41.830Z,63.80
2023-01-21T19:53:11.094Z,64.00
2023-01-21T19:55:39.692Z,63.30
2023-01-21T19:58:19.683Z,65.10
2023-01-21T20:00:49.224Z,64.80
2023-01-21T20:03:18.639Z,62.70
2023-01-21T20:05:47.120Z,62.50
2023-01-21T20:08:19.333Z,62.40
2023-01-21T20:10:46.320Z,62.30
2023-01-21T20:13:14.440Z,62.20
2023-01-21T20:15:43.511Z,61.60
2023-01-21T20:18:20.246Z,61.00
2023-01-21T20:20:47.134Z,62.10
2023-01-21T20:23:16.194Z,81.20
2023-01-21T20:25:44.876Z,64.00
2023-01-21T20:28:40.438Z,63.60
2023-01-21T20:31:08.233Z,63.90
2023-01-21T20:33:36.291Z,67.10
2023-01-21T20:36:06.129Z,66.90
2023-01-21T20:38:35.945Z,66.60
2023-01-21T20:41:04.564Z,67.00
2023-01-21T20:43:31.643Z,68.10
2023-01-21T20:46:02.098Z,66.50
2023-01-21T20:48:38.861Z,66.60
2023-01-21T20:51:09.659Z,66.00
2023-01-21T20:53:37.417Z,66.40
2023-01-21T20:56:28.959Z,66.50
2023-01-21T20:58:56.115Z,66.60
2023-01-21T21:01:25.051Z,66.60
2023-01-21T21:03:52.415Z,67.40
2023-01-21T21:06:22.187Z,68.10
2023-01-21T21:08:51.475Z,69.30
2023-01-21T21:11:18.962Z,68.20
2023-01-21T21:13:48.430Z,72.30
2023-01-21T21:16:20.134Z,68.30
2023-01-21T21:18:47.439Z,68.00
2023-01-21T21:21:18.274Z,66.20
2023-01-21T21:23:48.172Z,66.90
2023-01-21T21:26:26.778Z,66.80
2023-01-21T21:28:55.115Z,66.50
2023-01-21T21:31:22.532Z,66.10
2023-01-21T21:33:52.664Z,65.60
2023-01-21T21:36:21.999Z,67.70
2023-01-21T21:38:49.387Z,74.90
2023-01-21T21:41:44.999Z,64.70
2023-01-21T21:44:12.953Z,66.70
2023-01-21T21:46:58.635Z,68.10
2023-01-21T21:49:26.022Z,79.40
2023-01-21T21:51:53.033Z,66.40
2023-01-21T21:54:20.005Z,66.80
2023-01-21T21:56:47.730Z,68.50
2023-01-21T21:59:15.145Z,68.30
2023-01-21T22:01:44.982Z,67.00
2023-01-21T22:04:12.252Z,66.50
2023-01-21T22:06:39.148Z,65.60
2023-01-21T22:09:06.519Z,65.50
2023-01-21T22:11:33.757Z,65.70
2023-01-21T22:14:04.002Z,64.70
2023-01-21T22:16:32.339Z,64.50
2023-01-21T22:19:00.277Z,65.10
2023-01-21T22:21:33.205Z,66.00
2023-01-21T22:24:05.582Z,65.30
2023-01-21T22:26:36.761Z,67.60
2023-01-21T22:29:04.681Z,66.20
2023-01-21T22:31:32.886Z,65.60
2023-01-21T22:34:00.450Z,64.40
2023-01-21T22:36:29.867Z,65.90
2023-01-21T22:38:58.313Z,65.70
2023-01-21T22:41:25.868Z,65.20
2023-01-21T22:43:53.496Z,66.60
2023-01-21T22:46:27.400Z,65.70
2023-01-21T22:48:54.859Z,65.60
2023-01-21T22:51:23.015Z,65.30
2023-01-21T22:53:50.756Z,66.30
2023-01-21T22:56:20.079Z,65.90
2023-01-21T22:58:47.458Z,66.90
2023-01-21T23:01:31.089Z,66.70
2023-01-21T23:03:58.975Z,66.90
2023-01-21T23:06:26.476Z,66.00
2023-01-21T23:08:56.316Z,66.20
2023-01-21T23:11:23.372Z,65.90
2023-01-21T23:13:50.278Z,68.70
2023-01-21T23:16:19.768Z,69.90
2023-01-21T23:18:46.946Z,70.00
2023-01-21T23:21:17.427Z,69.70
2023-01-21T23:23:44.266Z,68.10
2023-01-21T23:26:13.122Z,69.10
2023-01-21T23:28:40.117Z,69.00
2023-01-21T23:31:09.517Z,69.20
2023-01-21T23:33:36.744Z,68.50
2023-01-21T23:36:03.828Z,68.30
2023-01-21T23:38:30.894Z,69.60
2023-01-21T23:40:58.019Z,68.90
2023-01-21T23:43:28.053Z,67.40
2023-01-21T23:45:55.195Z,68.20
2023-01-21T23:48:25.597Z,68.50
2023-01-21T23:50:52.433Z,68.60
2023-01-21T23:53:19.208Z,68.90
2023-01-21T23:55:46.019Z,69.10
2023-01-21T23:58:12.832Z,69.60
